首页
METAR-TAF:

METAR-TAF

机场 :

Norway House, 曼尼托巴, 加拿大

纬度: 53-58N, 经度: 097-50W, 海拔: 223米

当前天气观测

该预报发布于21分钟前的03:00 UTC
风速3节,风向东南
温度 17°C
湿度 36%
气压 1011 hPa
能見度: 14.5公里
少量云层高于24000英尺

METAR: CYNE 010300Z AUTO 13003KT 9SM FEW240 17/02 A2986 RMK SLP119 DENSITY ALT 1200FT

时间: 22:21 (03:21 UTC)

预报

该预报发布于2小时和43分钟前的00:38 UTC
预报有效从01日的 01点(UTC)到 01日的 13点(UTC)
风速8节,风向南转西南
能見度: 10公里
散云层高于25000英尺
成为
从 01日的 01点(UTC)到 01日的 03点(UTC)
风速8节,风向东南
从 01日的 0600点(UTC)
风速8节,风向东转东南
能見度: 10公里
多云层高于12000英尺
从 01日的 0800点(UTC)
风速8节,风向东南
能見度: 10公里
散云层高于2000英尺
多云层高于5000英尺
短暂存在
从 01日的 08点(UTC)到 01日的 13点(UTC)
能見度: 8.0公里
阴天层高于2000英尺
小阵雨, 轻雾
几率 30%
从 01日的 08点(UTC)到 01日的 13点(UTC)
风速15节,风向多变,有时为25节阵风
能見度: 4.8公里
阴天层高于2000英尺, 积雨云.
雷暴, 雨

TAF: CYNE 010038Z 0101/0113 20008KT P6SM SCT250 BECMG 0101/0103 13008KT FM010600 12008KT P6SM BKN120 FM010800 14008KT P6SM SCT020 BKN050 TEMPO 0108/0113 5SM -SHRA BR OVC020 PROB30 0108/0113 VRB15G25KT 3SM TSRA OVC020CB RMK FCST BASED ON AUTO OBS. NXT FCST BY 010700Z

超过4000个机场的气象观测和天气预报(METAR&TAF报告)。

可查询的气象台以黄色和红色小点在地图上表示。

将鼠标移到小点上方,可查看气象台名称。

然后点击查看天气观测和预报。

如需切换地图:点击带黑十字的绿色按钮放大地图;点击带横线的绿色按钮缩小地图;或者点击绿色箭头查看邻近地区的地图。


METAR-TAF: